Historyczne dane pomiarowe

Dodano dane terminowe – wersja testowa.

Dane z okresu 1951-2019

Wersja bazy: 1.34 [2019-03-16, lista zmian], aktualizacja planowana na 2019-04-15

Dane meteo z obszaru Polski uzyskane na podstawie danych udostępnionych przez Instytut Meteorologii i Gospodarki Wodnej – Państwowy Instytut Badawczy.

 

Wybierz Datę:    

       

TemperaturaWilgotnośćWiatrCiśnienieOpadyŚniegCzas trwania zjawisk
 Stacja t tx tn tng RH VA  wxwx mslp ppp RRR   cm mm wxwxwxwxwxwxwx
1961-08-14 15.2 18.9 10.1- 74.8- 3.3 1.0---- 0.0------------
1961-08-13 14.8 16.9 14.2- 80.0- 7.0 2.0---- 0.0------------
1961-08-12 17.2 22.3 15.5- 87.3- 7.3 0.3---- 7.0------------
1961-08-11 19.6 23.6 17.8- 90.5- 7.7 2.0---- 13.0------------
1961-08-10 21.9 26.8 17.0- 74.3- 5.0 2.7---- 16.7------------
1961-08-09 22.7 28.7 14.7- 68.8- 3.7 2.0---- 0.0------------
1961-08-08 19.6 23.9 14.5- 59.0- 3.7 1.3---- 0.0------------
1961-08-07 21.5 26.5 19.0- 74.3- 5.3 2.7---- 0.2------------
1961-08-06 23.4 30.7 15.5- 67.8- 0.7 1.3---- 0.0------------
1961-08-05 18.5 22.7 15.0- 78.0- 3.7 2.7---- 0.0------------
1961-08-04 16.1 20.2 10.0- 66.5- 4.0 2.0---- 0.0------------
1961-08-03 16.4 21.6 14.8- 76.5- 5.3 2.7---- 0.0------------
1961-08-02 20.6 25.6 12.3- 57.3- 2.0 2.0---- 0.0------------
1961-08-01 13.9 16.9 12.3- 86.3- 5.3 5.3---- 0.6------------
1961-07-31 14.2 16.7 12.6- 89.3- 7.7 4.3---- 4.3------------
1961-07-30 12.9 15.5 12.6- 96.0- 8.0 2.0---- 12.1------------
1961-07-29 15.0 18.7 12.9- 84.8- 7.3 1.7---- 0.7------------
1961-07-28 17.4 21.6 16.2- 86.0- 7.3 1.3---- 19.9------------
1961-07-27 20.5 25.4 15.0- 65.0- 6.7 2.7---- 0.4------------
1961-07-26 17.3 21.3 9.7- 70.3- 7.3 2.0---- 0.0------------
1961-07-25 14.3 17.2 9.5- 78.0- 7.3 2.3---- 0.0------------
1961-07-24 14.7 18.9 12.6- 75.8- 7.3 3.0---- 0.0------------
1961-07-23 14.9 17.6 12.5- 83.5- 7.7 4.0---- 0.0------------
1961-07-22 15.3 20.1 13.9- 83.8- 7.3 3.7---- 1.3------------
1961-07-21 15.6 19.2 11.9- 82.0- 7.0 4.3---- 2.4------------
1961-07-20 16.7 22.4 11.2- 71.0- 5.0 1.0---- 0.0------------
1961-07-19 16.0 20.5 11.5- 77.8- 3.0 0.7---- 9.8------------
1961-07-18 14.4 17.5 10.9- 86.8- 7.3 3.3---- 2.8------------
1961-07-17 16.4 22.5 11.2- 73.0- 6.0 2.7---- 0.3------------
1961-07-16 15.0 17.6 13.2- 88.0- 5.3 1.7---- 8.4------------
1961-07-15 16.7 21.9 13.0- 76.0- 4.7 1.0---- 1.8------------
1961-07-14 15.6 19.9 14.5- 70.5- 4.7 4.3---- 0.0------------
1961-07-13 21.8 29.0 15.0- 74.5- 5.0 6.7---- 1.8------------
1961-07-12 19.2 25.7 10.9- 81.0- 4.0 1.0---- 0.1------------
1961-07-11 16.8 20.8 10.9- 65.0- 2.7 3.0---- 6.1------------
1961-07-10 14.0 18.3 10.5- 75.3- 6.3 4.3---- 3.5------------
1961-07-09 16.8 23.9 12.2- 67.8- 3.7 4.3---- 0.1------------
1961-07-08 16.2 21.5 10.2- 57.3- 4.7 2.7---- 0.0------------
1961-07-07 13.5 17.6 9.8- 73.3- 6.7 4.0---- 0.2------------
1961-07-06 12.9 17.1 8.8- 78.0- 3.7 3.7---- 1.0------------
1961-07-05 15.0 18.4 14.2- 60.3- 5.3 3.3---- 0.0------------
1961-07-04 19.3 25.7 17.6- 81.0- 7.0 4.0---- 2.9------------
1961-07-03 25.9 31.5 16.3- 42.8- 1.3 1.0---- 0.0------------
1961-07-02 23.7 28.9 16.3- 52.8- 0.0 1.0---- 0.0------------
1961-07-01 19.7 25.6 13.2- 63.5- 1.3 0.0---- 0.0------------
1961-06-30 19.9 25.2 11.7- 60.8- 2.3 1.7---- 0.0------------
1961-06-29 15.7 18.5 11.4- 73.8- 5.0 3.0---- 0.0------------
1961-06-28 14.9 22.1 13.9- 72.0- 5.0 2.3---- 4.2------------
1961-06-27 23.8 33.4 17.5- 65.8- 4.0 3.3---- 15.5------------
1961-06-26 23.6 28.7 17.5- 62.3- 3.7 1.0---- 0.0------------
1961-06-25 22.7 27.7 16.5- 54.5- 2.0 4.0---- 0.0------------
1961-06-24 18.7 23.0 14.0- 59.8- 5.0 3.7---- 0.0------------
1961-06-23 17.9 23.7 15.0- 76.0- 5.3 2.0---- 0.1------------
1961-06-22 17.7 21.9 10.0- 54.8- 2.0 2.0---- 6.5------------
1961-06-21 15.7 23.2 9.0- 69.8- 3.3 1.3---- 5.8------------
1961-06-20 15.2 19.5 10.9- 55.5- 1.0 2.0---- 0.0------------
1961-06-19 17.3 22.3 16.6- 68.5- 5.3 2.0---- 0.0------------
1961-06-18 21.3 26.6 15.7- 56.5- 5.0 3.0---- 0.3------------
1961-06-17 17.9 22.6 10.0- 66.8- 5.3 4.3---- 0.0------------
1961-06-16 12.9 17.2 11.2- 84.8- 5.7 1.0---- 0.6------------
255.5 ms

 

Źródłem pochodzenia danych jest Instytut Meteorologii i Gospodarki Wodnej – Państwowy Instytut Badawczy. Dane Instytutu Meteorologii i Gospodarki Wodnej – Państwowego Instytutu Badawczego zostały przetworzone.

Dane źródłowe można odnaleźć na stronie https://dane.imgw.pl